createdAt,value
2017-09-25T00:00:03.204Z,973.65
2017-09-25T00:01:12.222Z,973.66
2017-09-25T00:02:21.556Z,973.67
2017-09-25T00:03:30.571Z,973.63
2017-09-25T00:04:39.934Z,973.63
2017-09-25T00:05:49.268Z,973.64
2017-09-25T00:06:58.283Z,973.64
2017-09-25T00:08:07.300Z,973.63
2017-09-25T00:09:16.314Z,973.61
2017-09-25T00:10:25.330Z,973.59
2017-09-25T00:11:34.665Z,973.57
2017-09-25T00:12:43.360Z,973.55
2017-09-25T00:13:52.376Z,973.56
2017-09-25T00:15:01.072Z,973.54
2017-09-25T00:16:10.096Z,973.54
2017-09-25T00:17:19.111Z,973.58
2017-09-25T00:18:28.127Z,973.55
2017-09-25T00:19:36.822Z,973.59
2017-09-25T00:20:46.154Z,973.6
2017-09-25T00:21:55.168Z,973.58
2017-09-25T00:23:03.863Z,973.6
2017-09-25T00:24:13.212Z,973.59
2017-09-25T00:25:22.869Z,973.61
2017-09-25T00:26:31.883Z,973.59
2017-09-25T00:27:40.896Z,973.6
2017-09-25T00:28:50.233Z,973.59
2017-09-25T00:29:59.567Z,973.55
2017-09-25T00:31:08.583Z,973.57
2017-09-25T00:32:17.280Z,973.54
2017-09-25T00:33:27.250Z,973.55
2017-09-25T00:34:37.545Z,973.5
2017-09-25T00:35:46.560Z,973.51
2017-09-25T00:36:55.896Z,973.52
2017-09-25T00:38:04.920Z,973.48
2017-09-25T00:39:14.256Z,973.55
2017-09-25T00:40:23.591Z,973.48
2017-09-25T00:41:32.610Z,973.53
2017-09-25T00:42:41.307Z,973.51
2017-09-25T00:43:50.642Z,973.51
2017-09-25T00:44:59.660Z,973.48
2017-09-25T00:46:08.680Z,973.5
2017-09-25T00:47:17.374Z,973.45
2017-09-25T00:48:26.069Z,973.46
2017-09-25T00:49:35.086Z,973.46
2017-09-25T00:50:43.784Z,973.46
2017-09-25T00:51:52.802Z,973.44
2017-09-25T00:53:01.820Z,973.45
2017-09-25T00:54:11.155Z,973.43
2017-09-25T00:55:20.486Z,973.41
2017-09-25T00:56:29.184Z,973.41
2017-09-25T00:57:38.839Z,973.37
2017-09-25T00:58:48.171Z,973.38
2017-09-25T00:59:56.868Z,973.42
2017-09-25T01:01:06.525Z,973.35
2017-09-25T01:02:15.542Z,973.35
2017-09-25T01:03:24.556Z,973.33
2017-09-25T01:04:34.211Z,973.34
2017-09-25T01:05:43.551Z,973.28
2017-09-25T01:06:53.205Z,973.36
2017-09-25T01:08:02.222Z,973.33
2017-09-25T01:09:11.561Z,973.29
2017-09-25T01:10:20.575Z,973.29
2017-09-25T01:11:29.909Z,973.27
2017-09-25T01:12:38.924Z,973.25
2017-09-25T01:13:48.254Z,973.28
2017-09-25T01:14:57.588Z,973.25
2017-09-25T01:16:06.285Z,973.27
2017-09-25T01:17:15.945Z,973.26
2017-09-25T01:18:24.640Z,973.24
2017-09-25T01:19:33.976Z,973.27
2017-09-25T01:20:43.313Z,973.24
2017-09-25T01:21:52.969Z,973.25
2017-09-25T01:23:01.664Z,973.22
2017-09-25T01:24:11.319Z,973.18
2017-09-25T01:25:20.018Z,973.23
2017-09-25T01:26:29.033Z,973.23
2017-09-25T01:27:38.370Z,973.23
2017-09-25T01:28:47.388Z,973.26
2017-09-25T01:29:57.046Z,973.29
2017-09-25T01:31:06.061Z,973.3
2017-09-25T01:32:15.080Z,973.33
2017-09-25T01:33:23.771Z,973.31
2017-09-25T01:34:33.747Z,973.29
2017-09-25T01:35:42.440Z,973.28
2017-09-25T01:36:51.133Z,973.28
2017-09-25T01:38:00.790Z,973.26
2017-09-25T01:39:09.806Z,973.28
2017-09-25T01:40:18.820Z,973.28
2017-09-25T01:41:28.155Z,973.3
2017-09-25T01:42:37.170Z,973.22
2017-09-25T01:43:46.185Z,973.27
2017-09-25T01:44:54.878Z,973.23
2017-09-25T01:46:03.897Z,973.23
2017-09-25T01:47:12.588Z,973.2
2017-09-25T01:48:21.921Z,973.21
2017-09-25T01:49:30.615Z,973.17
2017-09-25T01:50:39.630Z,973.18
2017-09-25T01:51:48.645Z,973.19
2017-09-25T01:52:57.341Z,973.16
2017-09-25T01:54:06.355Z,973.14
2017-09-25T01:55:15.692Z,973.09
2017-09-25T01:56:24.386Z,973.08
2017-09-25T01:57:33.399Z,973.05
2017-09-25T01:58:42.413Z,973.08
2017-09-25T01:59:51.430Z,973.05
2017-09-25T02:01:00.767Z,973.03
2017-09-25T02:02:09.463Z,973.02
2017-09-25T02:03:18.156Z,973
2017-09-25T02:04:27.495Z,973.01
2017-09-25T02:05:37.146Z,973.03
2017-09-25T02:06:46.483Z,973.03
2017-09-25T02:07:56.135Z,972.98
2017-09-25T02:09:04.828Z,972.94
2017-09-25T02:10:14.177Z,972.93
2017-09-25T02:11:23.194Z,972.92
2017-09-25T02:12:32.203Z,972.9
2017-09-25T02:13:41.220Z,972.9
2017-09-25T02:14:50.232Z,972.88
2017-09-25T02:15:59.248Z,972.86
2017-09-25T02:17:08.262Z,972.88
2017-09-25T02:18:17.603Z,972.84
2017-09-25T02:19:26.297Z,972.9
2017-09-25T02:20:35.638Z,972.89
2017-09-25T02:21:44.652Z,972.9
2017-09-25T02:22:53.671Z,972.93
2017-09-25T02:24:02.686Z,972.91
2017-09-25T02:25:12.020Z,972.92
2017-09-25T02:26:21.681Z,972.96
2017-09-25T02:27:30.375Z,972.94
2017-09-25T02:28:39.708Z,972.87
2017-09-25T02:29:48.721Z,972.94
2017-09-25T02:30:58.058Z,972.9
2017-09-25T02:32:07.078Z,972.92
2017-09-25T02:33:16.741Z,972.93
2017-09-25T02:34:25.752Z,972.91
2017-09-25T02:35:35.405Z,972.89
2017-09-25T02:36:44.744Z,972.88
2017-09-25T02:37:54.080Z,972.89
2017-09-25T02:39:02.778Z,972.89
2017-09-25T02:40:12.443Z,972.87
2017-09-25T02:41:21.782Z,972.86
2017-09-25T02:42:30.476Z,972.85
2017-09-25T02:43:39.812Z,972.85
2017-09-25T02:44:49.147Z,972.88
2017-09-25T02:45:58.808Z,972.87
2017-09-25T02:47:08.141Z,972.85
2017-09-25T02:48:17.479Z,972.88
2017-09-25T02:49:27.136Z,972.84
2017-09-25T02:50:35.829Z,972.81
2017-09-25T02:51:44.842Z,972.82
2017-09-25T02:52:54.179Z,972.86
2017-09-25T02:54:03.841Z,972.83
2017-09-25T02:55:12.869Z,972.82
2017-09-25T02:56:21.885Z,972.8
2017-09-25T02:57:30.905Z,972.81
2017-09-25T02:58:39.923Z,972.82
2017-09-25T02:59:48.939Z,972.78
2017-09-25T03:00:57.634Z,972.79
2017-09-25T03:02:06.968Z,972.78
2017-09-25T03:03:15.662Z,972.82
2017-09-25T03:04:24.996Z,972.8
2017-09-25T03:05:34.329Z,972.77
2017-09-25T03:06:43.024Z,972.78
2017-09-25T03:07:52.035Z,972.81
2017-09-25T03:09:00.730Z,972.73
2017-09-25T03:10:09.426Z,972.78
2017-09-25T03:11:18.442Z,972.78
2017-09-25T03:12:27.139Z,972.73
2017-09-25T03:13:36.480Z,972.74
2017-09-25T03:14:45.850Z,972.78
2017-09-25T03:15:54.871Z,972.73
2017-09-25T03:17:04.208Z,972.73
2017-09-25T03:18:13.544Z,972.8
2017-09-25T03:19:22.558Z,972.83
2017-09-25T03:20:31.576Z,972.84
2017-09-25T03:21:40.270Z,972.84
2017-09-25T03:22:49.607Z,972.82
2017-09-25T03:23:58.942Z,972.82
2017-09-25T03:25:07.955Z,972.83
2017-09-25T03:26:17.287Z,972.82
2017-09-25T03:27:26.306Z,972.84
2017-09-25T03:28:35.644Z,972.83
2017-09-25T03:29:45.297Z,972.78
2017-09-25T03:30:53.992Z,972.79
2017-09-25T03:32:03.336Z,972.78
2017-09-25T03:33:12.992Z,972.77
2017-09-25T03:34:22.005Z,972.78
2017-09-25T03:35:31.024Z,972.73
2017-09-25T03:36:39.722Z,972.77
2017-09-25T03:37:49.057Z,972.79
2017-09-25T03:38:58.393Z,972.74
2017-09-25T03:40:07.405Z,972.77
2017-09-25T03:41:16.098Z,972.77
2017-09-25T03:42:25.109Z,972.72
2017-09-25T03:43:33.806Z,972.71
2017-09-25T03:44:42.500Z,972.77
2017-09-25T03:45:51.517Z,972.8
2017-09-25T03:47:00.214Z,972.77
2017-09-25T03:48:09.231Z,972.78
2017-09-25T03:49:18.564Z,972.77
2017-09-25T03:50:27.586Z,972.8
2017-09-25T03:51:36.918Z,972.73
2017-09-25T03:52:45.932Z,972.69
2017-09-25T03:53:55.267Z,972.69
2017-09-25T03:55:03.967Z,972.72
2017-09-25T03:56:12.661Z,972.66
2017-09-25T03:57:21.364Z,972.64
2017-09-25T03:58:30.375Z,972.68
2017-09-25T03:59:39.713Z,972.64
2017-09-25T04:00:48.410Z,972.7
2017-09-25T04:01:57.420Z,972.67
2017-09-25T04:03:06.116Z,972.68
2017-09-25T04:04:15.131Z,972.67
2017-09-25T04:05:23.825Z,972.66
2017-09-25T04:06:33.478Z,972.68
2017-09-25T04:07:42.815Z,972.65
2017-09-25T04:08:52.147Z,972.65
2017-09-25T04:10:01.162Z,972.67
2017-09-25T04:11:10.497Z,972.63
2017-09-25T04:12:19.512Z,972.64
2017-09-25T04:13:28.205Z,972.63
2017-09-25T04:14:36.902Z,972.63
2017-09-25T04:15:45.917Z,972.61
2017-09-25T04:16:54.610Z,972.55
2017-09-25T04:18:03.631Z,972.59
2017-09-25T04:19:13.286Z,972.57
2017-09-25T04:20:22.619Z,972.61
2017-09-25T04:21:31.956Z,972.61
2017-09-25T04:22:40.650Z,972.64
2017-09-25T04:23:49.344Z,972.63
2017-09-25T04:24:58.996Z,972.66
2017-09-25T04:26:09.011Z,972.67
2017-09-25T04:27:17.705Z,972.65
2017-09-25T04:28:27.040Z,972.68
2017-09-25T04:29:35.736Z,972.63
2017-09-25T04:30:44.433Z,972.65
2017-09-25T04:31:53.771Z,972.68
2017-09-25T04:33:03.105Z,972.6
2017-09-25T04:34:12.758Z,972.64
2017-09-25T04:35:22.090Z,972.61
2017-09-25T04:36:30.786Z,972.64
2017-09-25T04:37:40.132Z,972.65
2017-09-25T04:38:48.829Z,972.64
2017-09-25T04:39:57.524Z,972.67
2017-09-25T04:41:06.857Z,972.65
2017-09-25T04:42:16.191Z,972.65
2017-09-25T04:43:25.205Z,972.68
2017-09-25T04:44:33.900Z,972.71
2017-09-25T04:45:42.915Z,972.76
2017-09-25T04:46:52.248Z,972.74
2017-09-25T04:48:02.222Z,972.71
2017-09-25T04:49:11.879Z,972.74
2017-09-25T04:50:20.892Z,972.7
2017-09-25T04:51:29.906Z,972.69
2017-09-25T04:52:38.930Z,972.7
2017-09-25T04:53:47.947Z,972.68
2017-09-25T04:54:57.285Z,972.66
2017-09-25T04:56:05.975Z,972.69
2017-09-25T04:57:15.308Z,972.63
2017-09-25T04:58:24.647Z,972.64
2017-09-25T04:59:34.307Z,972.6
2017-09-25T05:00:43.325Z,972.62
2017-09-25T05:01:52.660Z,972.6
2017-09-25T05:03:02.313Z,972.59
2017-09-25T05:04:11.649Z,972.6
2017-09-25T05:05:20.664Z,972.57
2017-09-25T05:06:29.999Z,972.59
2017-09-25T05:07:39.337Z,972.53
2017-09-25T05:08:48.037Z,972.58
2017-09-25T05:09:57.051Z,972.57
2017-09-25T05:11:06.071Z,972.6
2017-09-25T05:12:14.768Z,972.58
2017-09-25T05:13:23.785Z,972.59
2017-09-25T05:14:32.799Z,972.65
2017-09-25T05:15:42.452Z,972.6
2017-09-25T05:16:51.788Z,972.68
2017-09-25T05:18:01.133Z,972.69
2017-09-25T05:19:10.468Z,972.7
2017-09-25T05:20:19.484Z,972.75
2017-09-25T05:21:28.497Z,972.73
2017-09-25T05:22:37.513Z,972.75
2017-09-25T05:23:46.216Z,972.76
2017-09-25T05:24:54.914Z,972.75
2017-09-25T05:26:03.607Z,972.79
2017-09-25T05:27:12.621Z,972.82
2017-09-25T05:28:21.320Z,972.85
2017-09-25T05:29:30.650Z,972.83
2017-09-25T05:30:39.990Z,972.84
2017-09-25T05:31:48.684Z,972.84
2017-09-25T05:32:57.697Z,972.85
2017-09-25T05:34:06.711Z,972.86
2017-09-25T05:35:16.045Z,972.85
2017-09-25T05:36:25.064Z,972.84
2017-09-25T05:37:34.406Z,972.86
2017-09-25T05:38:43.743Z,972.84
2017-09-25T05:39:52.761Z,972.9
2017-09-25T05:41:03.075Z,972.88
2017-09-25T05:42:12.090Z,972.9
2017-09-25T05:43:21.104Z,972.92
2017-09-25T05:44:30.118Z,972.99
2017-09-25T05:45:39.775Z,972.92
2017-09-25T05:46:49.121Z,972.94
2017-09-25T05:47:58.776Z,972.99
2017-09-25T05:49:07.472Z,972.99
2017-09-25T05:50:16.168Z,973.02
2017-09-25T05:51:25.504Z,973
2017-09-25T05:52:34.518Z,973
2017-09-25T05:53:43.534Z,972.97
2017-09-25T05:54:52.547Z,973.01
2017-09-25T05:56:01.565Z,972.95
2017-09-25T05:57:10.899Z,972.98
2017-09-25T05:58:20.234Z,972.95
2017-09-25T05:59:28.929Z,972.97
2017-09-25T06:00:37.947Z,972.97
2017-09-25T06:01:47.288Z,972.98
2017-09-25T06:02:56.940Z,972.99
2017-09-25T06:04:06.275Z,972.98
2017-09-25T06:05:15.287Z,972.95
2017-09-25T06:06:23.983Z,972.96
2017-09-25T06:07:33.636Z,972.92
2017-09-25T06:08:42.974Z,972.94
2017-09-25T06:09:52.309Z,972.88
2017-09-25T06:11:01.007Z,972.9
2017-09-25T06:12:09.707Z,972.9
2017-09-25T06:13:18.725Z,972.91
2017-09-25T06:14:27.742Z,972.88
2017-09-25T06:15:37.402Z,972.9
2017-09-25T06:16:46.737Z,972.87
2017-09-25T06:17:55.429Z,972.87
2017-09-25T06:19:04.764Z,972.85
2017-09-25T06:20:13.781Z,972.86
2017-09-25T06:21:23.117Z,972.87
2017-09-25T06:22:32.452Z,972.89
2017-09-25T06:23:42.115Z,972.83
2017-09-25T06:24:51.767Z,972.86
2017-09-25T06:26:00.462Z,972.86
2017-09-25T06:27:09.161Z,972.83
2017-09-25T06:28:18.497Z,972.81
2017-09-25T06:29:27.512Z,972.79
2017-09-25T06:30:36.206Z,972.76
2017-09-25T06:31:44.902Z,972.74
2017-09-25T06:32:54.242Z,972.73
2017-09-25T06:34:03.258Z,972.69
2017-09-25T06:35:12.275Z,972.7
2017-09-25T06:36:21.288Z,972.7
2017-09-25T06:37:29.982Z,972.68
2017-09-25T06:38:39.314Z,972.71
2017-09-25T06:39:48.654Z,972.71
2017-09-25T06:40:57.990Z,972.75
2017-09-25T06:42:07.000Z,972.74
2017-09-25T06:43:16.017Z,972.7
2017-09-25T06:44:25.031Z,972.72
2017-09-25T06:45:34.685Z,972.77
2017-09-25T06:46:44.338Z,972.79
2017-09-25T06:47:53.360Z,972.76
2017-09-25T06:49:02.694Z,972.8
2017-09-25T06:50:12.026Z,972.8
2017-09-25T06:51:21.685Z,972.8
2017-09-25T06:52:30.698Z,972.76
2017-09-25T06:53:40.039Z,972.78
2017-09-25T06:54:49.054Z,972.78
2017-09-25T06:55:58.388Z,972.78
2017-09-25T06:57:07.404Z,972.78
2017-09-25T06:58:16.101Z,972.78
2017-09-25T06:59:25.436Z,972.75
2017-09-25T07:00:34.135Z,972.8
2017-09-25T07:01:43.469Z,972.79
2017-09-25T07:02:52.807Z,972.79
2017-09-25T07:04:01.818Z,972.81
2017-09-25T07:05:10.832Z,972.79
2017-09-25T07:06:19.849Z,972.83
2017-09-25T07:07:28.866Z,972.8
2017-09-25T07:08:38.206Z,972.8
2017-09-25T07:09:47.223Z,972.8
2017-09-25T07:10:56.237Z,972.78
2017-09-25T07:12:04.942Z,972.8
2017-09-25T07:13:13.953Z,972.77
2017-09-25T07:14:22.969Z,972.81
2017-09-25T07:15:31.987Z,972.79
2017-09-25T07:16:41.001Z,972.78
2017-09-25T07:17:50.015Z,972.78
2017-09-25T07:18:59.073Z,972.81
2017-09-25T07:20:07.768Z,972.8
2017-09-25T07:21:17.103Z,972.82
2017-09-25T07:22:26.439Z,972.8
2017-09-25T07:23:35.135Z,972.78
2017-09-25T07:24:44.151Z,972.8
2017-09-25T07:25:53.164Z,972.77
2017-09-25T07:27:02.179Z,972.8
2017-09-25T07:28:10.881Z,972.79
2017-09-25T07:29:19.575Z,972.81
2017-09-25T07:30:28.594Z,972.77
2017-09-25T07:31:37.288Z,972.76
2017-09-25T07:32:46.941Z,972.8
2017-09-25T07:33:55.965Z,972.77
2017-09-25T07:35:05.629Z,972.74
2017-09-25T07:36:14.326Z,972.74
2017-09-25T07:37:23.659Z,972.73
2017-09-25T07:38:32.991Z,972.69
2017-09-25T07:39:41.685Z,972.73
2017-09-25T07:40:51.027Z,972.73
2017-09-25T07:42:00.366Z,972.69
2017-09-25T07:43:09.382Z,972.72
2017-09-25T07:44:18.397Z,972.73
2017-09-25T07:45:28.714Z,972.7
2017-09-25T07:46:37.735Z,972.72
2017-09-25T07:47:46.749Z,972.71
2017-09-25T07:48:55.764Z,972.71
2017-09-25T07:50:04.782Z,972.68
2017-09-25T07:51:14.126Z,972.71
2017-09-25T07:52:22.822Z,972.72
2017-09-25T07:53:31.517Z,972.7
2017-09-25T07:54:40.534Z,972.68
2017-09-25T07:55:49.551Z,972.73
2017-09-25T07:56:58.890Z,972.74
2017-09-25T07:58:08.229Z,972.76
2017-09-25T07:59:17.244Z,972.74
2017-09-25T08:00:26.575Z,972.76
2017-09-25T08:01:35.590Z,972.81
2017-09-25T08:02:44.929Z,972.82
2017-09-25T08:03:54.264Z,972.79
2017-09-25T08:05:02.960Z,972.81
2017-09-25T08:06:11.654Z,972.82
2017-09-25T08:07:20.675Z,972.79
2017-09-25T08:08:30.009Z,972.8
2017-09-25T08:09:38.702Z,972.78
2017-09-25T08:10:47.724Z,972.81
2017-09-25T08:11:56.741Z,972.8
2017-09-25T08:13:05.754Z,972.83
2017-09-25T08:14:14.770Z,972.85
2017-09-25T08:15:23.786Z,972.87
2017-09-25T08:16:33.122Z,972.86
2017-09-25T08:17:42.144Z,972.88
2017-09-25T08:18:51.155Z,972.86
2017-09-25T08:20:00.174Z,972.84
2017-09-25T08:21:09.513Z,972.85
2017-09-25T08:22:18.529Z,972.85
2017-09-25T08:23:27.225Z,972.84
2017-09-25T08:24:36.559Z,972.83
2017-09-25T08:25:46.223Z,972.83
2017-09-25T08:26:55.558Z,972.87
2017-09-25T08:28:04.254Z,972.87
2017-09-25T08:29:13.274Z,972.89
2017-09-25T08:30:23.253Z,972.87
2017-09-25T08:31:32.266Z,972.86
2017-09-25T08:32:41.602Z,972.85
2017-09-25T08:33:50.297Z,972.86
2017-09-25T08:34:59.637Z,972.9
2017-09-25T08:36:08.655Z,972.88
2017-09-25T08:37:17.673Z,972.88
2017-09-25T08:38:27.006Z,972.87
2017-09-25T08:39:36.341Z,972.87
2017-09-25T08:40:45.038Z,972.89
2017-09-25T08:41:54.054Z,972.88
2017-09-25T08:43:03.388Z,972.89
2017-09-25T08:44:13.371Z,972.92
2017-09-25T08:45:22.387Z,972.91
2017-09-25T08:46:31.723Z,972.9
2017-09-25T08:47:41.059Z,972.91
2017-09-25T08:48:50.396Z,972.92
2017-09-25T08:49:59.420Z,972.89
2017-09-25T08:51:08.765Z,972.9
2017-09-25T08:52:17.780Z,972.93
2017-09-25T08:53:27.757Z,972.89
2017-09-25T08:54:36.771Z,972.89
2017-09-25T08:55:45.790Z,972.96
2017-09-25T08:56:55.450Z,972.91
2017-09-25T08:58:04.465Z,972.86
2017-09-25T08:59:13.162Z,972.91
2017-09-25T09:00:21.860Z,972.89
2017-09-25T09:01:30.559Z,972.85
2017-09-25T09:02:39.576Z,972.86
2017-09-25T09:03:48.277Z,972.89
2017-09-25T09:04:57.610Z,972.89
2017-09-25T09:06:06.627Z,972.89
2017-09-25T09:07:15.644Z,972.89
2017-09-25T09:08:24.984Z,972.9
2017-09-25T09:09:34.004Z,972.89
2017-09-25T09:10:43.347Z,972.89
2017-09-25T09:11:52.683Z,972.86
2017-09-25T09:13:01.701Z,972.88
2017-09-25T09:14:11.036Z,972.88
2017-09-25T09:15:20.058Z,972.88
2017-09-25T09:16:29.722Z,972.88
2017-09-25T09:17:39.380Z,972.91
2017-09-25T09:18:48.395Z,972.9
2017-09-25T09:19:58.373Z,972.9
2017-09-25T09:21:07.709Z,972.87
2017-09-25T09:22:17.050Z,972.87
2017-09-25T09:23:26.070Z,972.88
2017-09-25T09:24:35.731Z,972.91
2017-09-25T09:25:44.428Z,972.89
2017-09-25T09:26:53.445Z,972.85
2017-09-25T09:28:02.461Z,972.87
2017-09-25T09:29:11.485Z,972.88
2017-09-25T09:30:21.468Z,972.91
2017-09-25T09:31:30.808Z,972.88
2017-09-25T09:32:39.824Z,972.91
2017-09-25T09:33:49.161Z,972.94
2017-09-25T09:34:58.178Z,972.88
2017-09-25T09:36:07.513Z,972.86
2017-09-25T09:37:17.171Z,972.84
2017-09-25T09:38:26.512Z,972.83
2017-09-25T09:39:35.870Z,972.85
2017-09-25T09:40:44.882Z,972.82
2017-09-25T09:41:53.897Z,972.83
2017-09-25T09:43:03.243Z,972.79
2017-09-25T09:44:13.224Z,972.75
2017-09-25T09:45:22.240Z,972.73
2017-09-25T09:46:31.255Z,972.73
2017-09-25T09:47:40.921Z,972.71
2017-09-25T09:48:50.261Z,972.73
2017-09-25T09:49:59.603Z,972.74
2017-09-25T09:51:08.940Z,972.72
2017-09-25T09:52:18.595Z,972.69
2017-09-25T09:53:27.612Z,972.73
2017-09-25T09:54:36.312Z,972.7
2017-09-25T09:55:45.967Z,972.68
2017-09-25T09:56:55.304Z,972.69
2017-09-25T09:58:04.319Z,972.71
2017-09-25T09:59:13.657Z,972.69
2017-09-25T10:00:22.993Z,972.71
2017-09-25T10:01:32.329Z,972.74
2017-09-25T10:02:41.676Z,972.73
2017-09-25T10:03:51.333Z,972.74
2017-09-25T10:05:00.987Z,972.73
2017-09-25T10:06:10.007Z,972.76
2017-09-25T10:07:19.021Z,972.73
2017-09-25T10:08:28.040Z,972.74
2017-09-25T10:09:37.054Z,972.74
2017-09-25T10:10:46.706Z,972.71
2017-09-25T10:11:55.724Z,972.71
2017-09-25T10:13:04.751Z,972.7
2017-09-25T10:14:13.442Z,972.7
2017-09-25T10:15:22.780Z,972.7
2017-09-25T10:16:32.118Z,972.68
2017-09-25T10:17:41.136Z,972.65
2017-09-25T10:18:50.480Z,972.6
2017-09-25T10:19:59.494Z,972.6
2017-09-25T10:21:08.191Z,972.59
2017-09-25T10:22:17.855Z,972.58
2017-09-25T10:23:26.552Z,972.57
2017-09-25T10:24:35.568Z,972.54
2017-09-25T10:25:44.583Z,972.6
2017-09-25T10:26:54.562Z,972.58
2017-09-25T10:28:04.224Z,972.6
2017-09-25T10:29:13.243Z,972.57
2017-09-25T10:30:22.260Z,972.59
2017-09-25T10:31:31.275Z,972.57
2017-09-25T10:32:40.288Z,972.58
2017-09-25T10:33:49.305Z,972.6
2017-09-25T10:34:58.006Z,972.54
2017-09-25T10:36:07.348Z,972.55
2017-09-25T10:37:16.042Z,972.57
2017-09-25T10:38:25.058Z,972.57
2017-09-25T10:39:35.045Z,972.58
2017-09-25T10:40:44.379Z,972.58
2017-09-25T10:41:53.715Z,972.56
2017-09-25T10:43:03.051Z,972.58
2017-09-25T10:44:12.714Z,972.57
2017-09-25T10:45:21.412Z,972.58
2017-09-25T10:46:30.433Z,972.58
2017-09-25T10:47:39.771Z,972.58
2017-09-25T10:48:48.785Z,972.58
2017-09-25T10:49:57.800Z,972.56
2017-09-25T10:51:06.818Z,972.55
2017-09-25T10:52:15.833Z,972.53
2017-09-25T10:53:24.851Z,972.53
2017-09-25T10:54:34.507Z,972.54
2017-09-25T10:55:43.522Z,972.55
2017-09-25T10:56:53.180Z,972.53
2017-09-25T10:58:02.549Z,972.53
2017-09-25T10:59:11.246Z,972.54
2017-09-25T11:00:20.901Z,972.56
2017-09-25T11:01:30.556Z,972.52
2017-09-25T11:02:39.572Z,972.49
2017-09-25T11:03:48.910Z,972.48
2017-09-25T11:04:58.567Z,972.48
2017-09-25T11:06:07.585Z,972.45
2017-09-25T11:07:17.245Z,972.45
2017-09-25T11:08:26.265Z,972.44
2017-09-25T11:09:34.960Z,972.46
2017-09-25T11:10:44.302Z,972.45
2017-09-25T11:11:53.634Z,972.44
2017-09-25T11:13:03.292Z,972.44
2017-09-25T11:14:11.986Z,972.48
2017-09-25T11:15:20.685Z,972.49
2017-09-25T11:16:29.561Z,972.44
2017-09-25T11:17:39.904Z,972.46
2017-09-25T11:18:49.249Z,972.46
2017-09-25T11:19:57.935Z,972.45
2017-09-25T11:21:06.950Z,972.41
2017-09-25T11:22:15.969Z,972.44
2017-09-25T11:23:24.986Z,972.4
2017-09-25T11:24:33.681Z,972.39
2017-09-25T11:25:43.340Z,972.37
2017-09-25T11:26:52.992Z,972.34
2017-09-25T11:28:02.011Z,972.36
2017-09-25T11:29:11.348Z,972.34
2017-09-25T11:30:20.043Z,972.36
2017-09-25T11:31:29.381Z,972.32
2017-09-25T11:32:38.396Z,972.32
2017-09-25T11:33:47.410Z,972.35
2017-09-25T11:34:57.388Z,972.33
2017-09-25T11:36:06.722Z,972.32
2017-09-25T11:37:16.425Z,972.33
2017-09-25T11:38:25.772Z,972.3
2017-09-25T11:39:34.789Z,972.33
2017-09-25T11:40:44.445Z,972.31
2017-09-25T11:41:53.466Z,972.32
2017-09-25T11:43:03.442Z,972.3
2017-09-25T11:44:12.787Z,972.29
2017-09-25T11:45:22.444Z,972.31
2017-09-25T11:46:31.783Z,972.32
2017-09-25T11:47:40.803Z,972.3
2017-09-25T11:48:49.822Z,972.36
2017-09-25T11:49:58.519Z,972.3
2017-09-25T11:51:07.213Z,972.32
2017-09-25T11:52:16.870Z,972.31
2017-09-25T11:53:26.213Z,972.27
2017-09-25T11:54:35.865Z,972.29
2017-09-25T11:55:44.563Z,972.27
2017-09-25T11:56:53.580Z,972.25
2017-09-25T11:58:02.916Z,972.26
2017-09-25T11:59:12.252Z,972.24
2017-09-25T12:00:21.270Z,972.21
2017-09-25T12:01:30.602Z,972.23
2017-09-25T12:02:40.261Z,972.22
2017-09-25T12:03:49.946Z,972.23
2017-09-25T12:04:59.607Z,972.21
2017-09-25T12:06:08.630Z,972.21
2017-09-25T12:07:17.328Z,972.25
2017-09-25T12:08:26.346Z,972.21
2017-09-25T12:09:35.362Z,972.2
2017-09-25T12:10:44.380Z,972.23
2017-09-25T12:11:53.716Z,972.22
2017-09-25T12:13:02.734Z,972.25
2017-09-25T12:14:11.751Z,972.23
2017-09-25T12:15:21.088Z,972.21
2017-09-25T12:16:29.787Z,972.24
2017-09-25T12:17:39.122Z,972.25
2017-09-25T12:18:48.457Z,972.26
2017-09-25T12:19:57.158Z,972.25
2017-09-25T12:21:06.492Z,972.26
2017-09-25T12:22:15.826Z,972.29
2017-09-25T12:23:24.849Z,972.28
2017-09-25T12:24:33.863Z,972.28
2017-09-25T12:25:42.556Z,972.33
2017-09-25T12:26:51.893Z,972.27
2017-09-25T12:28:00.591Z,972.28
2017-09-25T12:29:09.604Z,972.26
2017-09-25T12:30:18.621Z,972.25
2017-09-25T12:31:27.661Z,972.23
2017-09-25T12:32:37.018Z,972.23
2017-09-25T12:33:46.355Z,972.23
2017-09-25T12:34:56.010Z,972.19
2017-09-25T12:36:05.354Z,972.2
2017-09-25T12:37:14.371Z,972.22
2017-09-25T12:38:23.066Z,972.19
2017-09-25T12:39:31.767Z,972.21
2017-09-25T12:40:41.108Z,972.2
2017-09-25T12:41:49.802Z,972.23
2017-09-25T12:42:59.150Z,972.25
2017-09-25T12:44:08.165Z,972.21
2017-09-25T12:45:16.865Z,972.22
2017-09-25T12:46:25.882Z,972.23
2017-09-25T12:47:34.896Z,972.16
2017-09-25T12:48:43.920Z,972.19
2017-09-25T12:49:53.256Z,972.23
2017-09-25T12:51:02.274Z,972.19
2017-09-25T12:52:11.295Z,972.18
2017-09-25T12:53:20.313Z,972.16
2017-09-25T12:54:29.332Z,972.15
2017-09-25T12:55:38.028Z,972.17
2017-09-25T12:56:47.370Z,972.17
2017-09-25T12:57:56.711Z,972.19
2017-09-25T12:59:06.047Z,972.16
2017-09-25T13:00:14.743Z,972.17
2017-09-25T13:01:23.440Z,972.16
2017-09-25T13:02:32.138Z,972.14
2017-09-25T13:03:41.156Z,972.16
2017-09-25T13:04:51.134Z,972.13
2017-09-25T13:06:00.174Z,972.2
2017-09-25T13:07:08.858Z,972.17
2017-09-25T13:08:17.874Z,972.19
2017-09-25T13:09:26.901Z,972.17
2017-09-25T13:10:36.560Z,972.15
2017-09-25T13:11:45.575Z,972.2
2017-09-25T13:12:54.923Z,972.21
2017-09-25T13:14:03.945Z,972.2
2017-09-25T13:15:12.962Z,972.2
2017-09-25T13:16:22.961Z,972.2
2017-09-25T13:17:31.657Z,972.19
2017-09-25T13:18:41.008Z,972.23
2017-09-25T13:19:50.662Z,972.19
2017-09-25T13:20:59.679Z,972.2
2017-09-25T13:22:08.697Z,972.18
2017-09-25T13:23:18.357Z,972.15
2017-09-25T13:24:27.699Z,972.14
2017-09-25T13:25:36.714Z,972.18
2017-09-25T13:26:45.411Z,972.16
2017-09-25T13:27:54.429Z,972.16
2017-09-25T13:29:04.084Z,972.15
2017-09-25T13:30:12.780Z,972.12
2017-09-25T13:31:21.798Z,972.17
2017-09-25T13:32:31.139Z,972.15
2017-09-25T13:33:41.112Z,972.11
2017-09-25T13:34:50.135Z,972.15
2017-09-25T13:35:58.829Z,972.13
2017-09-25T13:37:07.841Z,972.16
2017-09-25T13:38:17.181Z,972.15
2017-09-25T13:39:26.839Z,972.15
2017-09-25T13:40:36.814Z,972.13
2017-09-25T13:41:46.149Z,972.13
2017-09-25T13:42:55.164Z,972.14
2017-09-25T13:44:04.179Z,972.09
2017-09-25T13:45:13.526Z,972.09
2017-09-25T13:46:22.861Z,972.13
2017-09-25T13:47:31.879Z,972.12
2017-09-25T13:48:40.893Z,972.15
2017-09-25T13:49:50.230Z,972.09
2017-09-25T13:50:59.247Z,972.11
2017-09-25T13:52:08.263Z,972.1
2017-09-25T13:53:17.599Z,972.14
2017-09-25T13:54:26.616Z,972.09
2017-09-25T13:55:35.634Z,972.08
2017-09-25T13:56:45.290Z,972.05
2017-09-25T13:57:54.303Z,972.07
2017-09-25T14:02:52.452Z,972.05
2017-09-25T14:04:02.115Z,972.07
2017-09-25T14:05:11.463Z,972.09
2017-09-25T14:06:20.810Z,972.04
2017-09-25T14:07:30.144Z,972.06
2017-09-25T14:08:39.479Z,972.07
2017-09-25T14:09:48.494Z,972.06
2017-09-25T14:10:57.508Z,972.05
2017-09-25T14:12:07.199Z,972.08
2017-09-25T14:13:16.534Z,972.07
2017-09-25T14:14:26.203Z,972.1
2017-09-25T14:15:35.869Z,972.08
2017-09-25T14:16:45.203Z,972.09
2017-09-25T14:17:54.537Z,972.08
2017-09-25T14:19:03.872Z,972.07
2017-09-25T14:20:13.850Z,972.08
2017-09-25T14:21:23.190Z,972.09
2017-09-25T14:22:31.885Z,972.09
2017-09-25T14:23:41.022Z,972.11
2017-09-25T14:24:50.593Z,972.09
2017-09-25T14:26:00.352Z,972.11
2017-09-25T14:27:09.368Z,972.1
2017-09-25T14:28:18.393Z,972.05
2017-09-25T14:29:28.050Z,972.08